createdAt,value
2019-05-06T14:48:10.000Z,23.613
2019-05-06T14:49:09.000Z,15.855
2019-05-06T14:50:08.000Z,26.018
2019-05-06T14:51:09.000Z,27.150
2019-05-06T14:52:09.000Z,26.705
2019-05-06T14:53:08.000Z,27.738
2019-05-06T14:54:07.000Z,23.575
2019-05-06T14:55:07.000Z,31.898
2019-05-06T14:56:07.000Z,30.154
2019-05-06T14:57:07.000Z,32.753
2019-05-06T14:58:06.000Z,26.209
2019-05-06T14:59:07.000Z,29.500
2019-05-06T15:00:06.000Z,27.880
2019-05-06T15:01:06.000Z,31.194
2019-05-06T15:02:07.000Z,29.052
2019-05-06T15:03:07.000Z,8.999
2019-05-06T15:04:06.000Z,31.969
2019-05-06T15:05:06.000Z,13.567
2019-05-06T15:06:07.000Z,29.923
2019-05-06T15:07:18.000Z,26.338
2019-05-06T15:08:07.000Z,23.539
2019-05-06T15:09:06.000Z,30.968
2019-05-06T15:10:06.000Z,30.907
2019-05-06T15:11:06.000Z,31.256
2019-05-06T15:12:06.000Z,31.396
2019-05-06T15:13:06.000Z,22.953
2019-05-06T15:14:06.000Z,13.391
2019-05-06T15:15:06.000Z,1.188
2019-05-06T15:16:06.000Z,0.148
2019-05-06T15:18:06.000Z,0.554
2019-05-06T15:19:07.000Z,0.081
2019-05-06T15:20:07.000Z,0.097
2019-05-06T15:21:06.000Z,0.456
2019-05-06T15:22:07.000Z,0.569
2019-05-06T15:23:06.000Z,0.332
2019-05-06T15:24:09.000Z,1.390
2019-05-06T15:24:44.000Z,0.662
2019-05-06T15:25:30.000Z,0.594
2019-05-06T15:26:29.000Z,0.150
2019-05-06T15:27:29.000Z,0.298
2019-05-06T15:28:29.000Z,0.223
2019-05-06T15:29:29.000Z,0.872
2019-05-06T15:30:30.000Z,0.123
2019-05-06T15:31:30.000Z,0.647
2019-05-06T15:32:30.000Z,0.771
2019-05-06T15:33:30.000Z,1.312
2019-05-06T15:34:29.000Z,0.921
2019-05-06T15:35:29.000Z,2.065
2019-05-06T15:36:29.000Z,0.469
2019-05-06T15:37:29.000Z,2.900
2019-05-06T15:38:30.000Z,0.827
2019-05-06T15:39:29.000Z,0.511
2019-05-06T15:40:29.000Z,1.067
2019-05-06T15:41:29.000Z,0.207
2019-05-06T15:42:29.000Z,1.212
2019-05-06T15:43:29.000Z,0.807
2019-05-06T15:44:29.000Z,2.042
2019-05-06T15:45:30.000Z,0.794
2019-05-06T15:46:29.000Z,0.137
2019-05-06T15:47:30.000Z,0.113
2019-05-06T15:48:29.000Z,0.335
2019-05-06T15:49:30.000Z,1.306
2019-05-06T15:50:29.000Z,0.205
2019-05-06T15:51:30.000Z,0.314
2019-05-06T15:52:29.000Z,0.124
2019-05-06T15:53:30.000Z,0.123
2019-05-06T15:54:29.000Z,0.962
2019-05-06T15:55:29.000Z,0.154
2019-05-06T15:56:30.000Z,1.215
2019-05-06T15:57:29.000Z,0.775
2019-05-06T15:58:30.000Z,1.130
2019-05-06T15:59:30.000Z,2.414
2019-05-06T16:00:42.000Z,1.391
2019-05-06T16:01:30.000Z,0.585
2019-05-06T16:02:29.000Z,0.386
2019-05-06T16:03:29.000Z,1.854
2019-05-06T16:04:29.000Z,1.102
2019-05-06T16:05:29.000Z,0.680
2019-05-06T16:06:29.000Z,0.339
2019-05-06T16:07:29.000Z,0.248
2019-05-06T16:08:30.000Z,0.159
2019-05-06T16:09:30.000Z,0.314
2019-05-06T16:10:30.000Z,0.120
2019-05-06T16:11:30.000Z,0.316
2019-05-06T16:12:29.000Z,0.374
2019-05-06T16:13:30.000Z,0.393
2019-05-06T16:14:30.000Z,0.378
2019-05-06T16:15:29.000Z,0.394
2019-05-06T16:16:29.000Z,0.196
2019-05-06T16:17:29.000Z,0.159
2019-05-06T16:18:30.000Z,0.116
2019-05-06T16:19:30.000Z,0.225
2019-05-06T16:20:29.000Z,1.108
2019-05-06T16:21:30.000Z,0.460
2019-05-06T16:22:29.000Z,0.267
2019-05-06T16:23:30.000Z,0.324
2019-05-06T16:24:30.000Z,0.536
2019-05-06T16:25:30.000Z,1.744
2019-05-06T16:26:30.000Z,0.111
2019-05-06T16:27:30.000Z,0.340
2019-05-06T16:28:30.000Z,0.511
2019-05-06T16:29:30.000Z,0.224
2019-05-06T16:30:29.000Z,0.242
2019-05-06T16:31:30.000Z,0.694
2019-05-06T16:32:29.000Z,1.131
2019-05-06T16:33:29.000Z,0.303
2019-05-06T16:34:30.000Z,0.003
2019-05-06T16:35:29.000Z,0.132
2019-05-06T16:36:29.000Z,0.421
2019-05-06T16:37:29.000Z,0.225
2019-05-06T16:38:29.000Z,0.834
2019-05-06T16:39:29.000Z,0.755
2019-05-06T16:40:29.000Z,0.122
2019-05-06T16:41:29.000Z,0.813
2019-05-06T16:42:30.000Z,0.096
2019-05-06T16:43:29.000Z,0.841
2019-05-06T16:44:29.000Z,0.218
2019-05-06T16:45:30.000Z,0.439
2019-05-06T16:46:29.000Z,0.301
2019-05-06T16:47:30.000Z,0.025
2019-05-06T16:48:30.000Z,0.271
2019-05-06T16:49:30.000Z,0.332
2019-05-06T16:50:29.000Z,0.132
2019-05-06T16:51:30.000Z,0.126
2019-05-06T16:52:30.000Z,0.029
2019-05-06T16:53:29.000Z,0.060
2019-05-06T16:54:30.000Z,1.048
2019-05-06T16:55:29.000Z,0.873
2019-05-06T16:56:29.000Z,0.130
2019-05-06T16:57:29.000Z,0.206
2019-05-06T16:58:29.000Z,0.460
2019-05-06T16:59:29.000Z,0.344
2019-05-06T17:00:41.000Z,0.208
2019-05-06T17:01:30.000Z,0.335
2019-05-06T17:02:30.000Z,0.548
2019-05-06T17:03:29.000Z,0.262
2019-05-06T17:04:30.000Z,0.106
2019-05-06T17:05:29.000Z,0.264
2019-05-06T17:06:29.000Z,0.306
2019-05-06T17:07:30.000Z,0.196
2019-05-06T17:08:30.000Z,0.297
2019-05-06T17:09:29.000Z,0.063
2019-05-06T17:10:29.000Z,0.159
2019-05-06T17:11:30.000Z,0.260
2019-05-06T17:12:29.000Z,0.247
2019-05-06T17:13:29.000Z,0.177
2019-05-06T17:14:29.000Z,0.229
2019-05-06T17:15:29.000Z,0.301
2019-05-06T17:16:30.000Z,0.094
2019-05-06T17:17:30.000Z,0.700
2019-05-06T17:18:29.000Z,0.149
2019-05-06T17:19:29.000Z,0.389
2019-05-06T17:20:30.000Z,0.707
2019-05-06T17:21:30.000Z,0.402
2019-05-06T17:22:29.000Z,0.542
2019-05-06T17:23:29.000Z,0.146
2019-05-06T17:24:29.000Z,0.402
2019-05-06T17:25:30.000Z,0.250
2019-05-06T17:26:29.000Z,0.533
2019-05-06T17:27:29.000Z,0.569
2019-05-06T17:28:29.000Z,0.155
2019-05-06T17:29:30.000Z,0.445
2019-05-06T17:30:29.000Z,1.087
2019-05-06T17:31:29.000Z,0.886
2019-05-06T17:32:29.000Z,0.434
2019-05-06T17:33:29.000Z,0.103
2019-05-06T17:34:29.000Z,0.196
2019-05-06T17:35:30.000Z,0.431
2019-05-06T17:36:30.000Z,0.107
2019-05-06T17:37:29.000Z,0.224
2019-05-06T17:38:30.000Z,0.749
2019-05-06T17:39:30.000Z,0.657
2019-05-06T17:40:29.000Z,0.463
2019-05-06T17:41:30.000Z,0.262
2019-05-06T17:42:30.000Z,0.170
2019-05-06T17:43:30.000Z,0.326
2019-05-06T17:44:29.000Z,1.100
2019-05-06T17:45:30.000Z,0.288
2019-05-06T17:46:30.000Z,0.304
2019-05-06T17:47:29.000Z,0.254
2019-05-06T17:48:29.000Z,0.199
2019-05-06T17:49:30.000Z,0.541
2019-05-06T17:50:30.000Z,0.070
2019-05-06T17:51:29.000Z,0.145
2019-05-06T17:52:29.000Z,1.140
2019-05-06T17:53:29.000Z,0.906
2019-05-06T17:54:29.000Z,0.873
2019-05-06T17:55:29.000Z,0.949
2019-05-06T17:56:29.000Z,0.361
2019-05-06T17:57:30.000Z,1.092
2019-05-06T17:58:30.000Z,1.310
2019-05-06T17:59:29.000Z,2.690
2019-05-06T18:00:42.000Z,1.043
2019-05-06T18:01:30.000Z,1.416
2019-05-06T18:02:29.000Z,0.232
2019-05-06T18:03:29.000Z,0.130
2019-05-06T18:04:29.000Z,0.159
2019-05-06T18:05:30.000Z,0.787
2019-05-06T18:06:30.000Z,1.929
2019-05-06T18:07:30.000Z,0.388
2019-05-06T18:08:29.000Z,0.329
2019-05-06T18:09:30.000Z,0.560
2019-05-06T18:10:29.000Z,0.245
2019-05-06T18:11:29.000Z,1.985
2019-05-06T18:12:29.000Z,0.084
2019-05-06T18:13:30.000Z,1.330
2019-05-06T18:14:30.000Z,0.459
2019-05-06T18:15:29.000Z,1.119
2019-05-06T18:16:30.000Z,0.152
2019-05-06T18:17:30.000Z,0.718
2019-05-06T18:18:29.000Z,1.050
2019-05-06T18:19:30.000Z,1.083
2019-05-06T18:20:29.000Z,1.715
2019-05-06T18:21:29.000Z,0.722
2019-05-06T18:22:30.000Z,0.105
2019-05-06T18:23:29.000Z,0.290
2019-05-06T18:24:29.000Z,1.735
2019-05-06T18:25:29.000Z,0.261
2019-05-06T18:26:29.000Z,0.248
2019-05-06T18:27:29.000Z,0.134
2019-05-06T18:28:30.000Z,0.643
2019-05-06T18:29:29.000Z,0.111
2019-05-06T18:30:29.000Z,0.251
2019-05-06T18:31:30.000Z,0.101
2019-05-06T18:32:30.000Z,0.689
2019-05-06T18:33:29.000Z,0.337
2019-05-06T18:34:30.000Z,0.149
2019-05-06T18:35:30.000Z,0.217
2019-05-06T18:36:30.000Z,0.532
2019-05-06T18:37:29.000Z,0.351
2019-05-06T18:38:30.000Z,0.113
2019-05-06T18:39:29.000Z,0.302
2019-05-06T18:40:29.000Z,0.309
2019-05-06T18:41:30.000Z,0.597
2019-05-06T18:42:30.000Z,0.467
2019-05-06T18:43:29.000Z,0.277
2019-05-06T18:44:29.000Z,0.082
2019-05-06T18:45:29.000Z,0.056
2019-05-06T18:46:29.000Z,0.119
2019-05-06T18:47:29.000Z,0.137
2019-05-06T18:48:29.000Z,0.286
2019-05-06T18:49:29.000Z,0.209
2019-05-06T18:50:30.000Z,0.205
2019-05-06T18:51:30.000Z,0.081
2019-05-06T18:52:30.000Z,0.521
2019-05-06T18:53:29.000Z,0.032
2019-05-06T18:54:29.000Z,0.261
2019-05-06T18:55:30.000Z,0.290
2019-05-06T18:56:29.000Z,0.315
2019-05-06T18:57:29.000Z,0.283
2019-05-06T18:58:30.000Z,0.033
2019-05-06T18:59:30.000Z,0.078
2019-05-06T19:00:41.000Z,0.168
2019-05-06T19:01:30.000Z,0.200
2019-05-06T19:02:29.000Z,0.264
2019-05-06T19:03:30.000Z,0.154
2019-05-06T19:04:29.000Z,0.146
2019-05-06T19:05:29.000Z,0.151
2019-05-06T19:06:30.000Z,0.201
2019-05-06T19:07:29.000Z,0.095
2019-05-06T19:08:29.000Z,0.264
2019-05-06T19:09:30.000Z,0.107
2019-05-06T19:10:29.000Z,0.126
2019-05-06T19:11:29.000Z,0.107
2019-05-06T19:12:29.000Z,0.113
2019-05-06T19:13:29.000Z,0.270
2019-05-06T19:14:29.000Z,0.121
2019-05-06T19:15:30.000Z,0.197
2019-05-06T19:16:29.000Z,0.276
2019-05-06T19:17:29.000Z,0.190
2019-05-06T19:18:29.000Z,0.282
2019-05-06T19:19:30.000Z,0.254
2019-05-06T19:20:29.000Z,0.239
2019-05-06T19:21:30.000Z,0.382
2019-05-06T19:22:29.000Z,0.159
2019-05-06T19:23:30.000Z,0.142
2019-05-06T19:24:29.000Z,0.262
2019-05-06T19:25:29.000Z,0.013
2019-05-06T19:26:29.000Z,0.092
2019-05-06T19:27:30.000Z,0.933
2019-05-06T19:28:29.000Z,0.264
2019-05-06T19:29:30.000Z,0.251
2019-05-06T19:30:29.000Z,0.063
2019-05-06T19:31:29.000Z,0.693
2019-05-06T19:32:30.000Z,0.253
2019-05-06T19:33:30.000Z,0.102
2019-05-06T19:34:29.000Z,0.309
2019-05-06T19:35:29.000Z,0.040
2019-05-06T19:36:29.000Z,0.023
2019-05-06T19:37:29.000Z,0.040
2019-05-06T19:38:30.000Z,0.047
2019-05-06T19:39:30.000Z,0.015
